Time;durP1;ratioP1;P1;durP2;ratioP2;P2;SDS_P1;SDS_P2;PMS_P1;PMS_P2;Temp;Humidity;BMP_temperature;BMP_pressure;BME280_temperature;BME280_humidity;BME280_pressure;Samples;Min_cycle;Max_cycle;Signal;HPM_P1;HPM_P2
2023/07/24 00:00:28;;;;;;;7.53;1.40;;;41.80;40.00;;;;;;5048164;28;20403;-56
2023/07/24 00:02:55;;;;;;;3.85;1.50;;;41.70;40.00;;;;;;5047888;28;20052;-55
2023/07/24 00:05:22;;;;;;;7.03;1.50;;;41.70;40.60;;;;;;5047845;28;20618;-57
2023/07/24 00:07:48;;;;;;;4.30;1.50;;;41.60;40.10;;;;;;5049808;28;20025;-54
2023/07/24 00:10:15;;;;;;;7.68;1.70;;;41.50;40.00;;;;;;5047512;28;20425;-53
2023/07/24 00:12:41;;;;;;;7.43;1.70;;;41.40;39.40;;;;;;5047891;28;20009;-59
2023/07/24 00:15:08;;;;;;;5.18;1.65;;;41.40;39.60;;;;;;5047177;28;20033;-59
2023/07/24 00:17:34;;;;;;;7.50;1.80;;;41.40;39.50;;;;;;5047136;28;20021;-52
2023/07/24 00:20:00;;;;;;;8.73;1.77;;;41.30;39.80;;;;;;5047412;28;20017;-54
2023/07/24 00:22:27;;;;;;;7.47;2.03;;;41.20;39.50;;;;;;5046930;28;20016;-59
2023/07/24 00:24:53;;;;;;;4.32;1.58;;;41.20;39.40;;;;;;5048249;28;20105;-54
2023/07/24 00:27:20;;;;;;;5.75;1.50;;;41.20;39.30;;;;;;5046521;28;20032;-58
2023/07/24 00:29:46;;;;;;;3.42;1.50;;;41.10;39.50;;;;;;5029552;28;20395;-57
2023/07/24 00:32:12;;;;;;;8.85;1.77;;;41.10;39.50;;;;;;5050974;28;20020;-54
2023/07/24 00:34:39;;;;;;;6.57;1.65;;;41.00;39.60;;;;;;5046668;28;20024;-57
2023/07/24 00:37:05;;;;;;;3.75;1.50;;;41.00;39.80;;;;;;5055197;28;20009;-57
2023/07/24 00:39:32;;;;;;;14.48;2.47;;;41.00;39.90;;;;;;5053384;28;20091;-54
2023/07/24 00:41:58;;;;;;;7.85;2.00;;;40.90;40.50;;;;;;5052975;28;20021;-52
2023/07/24 00:44:25;;;;;;;7.53;1.95;;;40.90;39.80;;;;;;5044433;28;20498;-56
2023/07/24 00:46:51;;;;;;;18.23;2.80;;;40.80;40.70;;;;;;5043828;28;20012;-56
2023/07/24 00:49:18;;;;;;;8.23;1.58;;;40.70;40.70;;;;;;5043452;28;20013;-55
2023/07/24 00:51:45;;;;;;;10.27;1.75;;;40.70;40.40;;;;;;5044988;28;20013;-56
2023/07/24 00:54:14;;;;;;;8.35;1.70;;;40.60;40.50;;;;;;5050671;28;21455;-56
2023/07/24 00:56:40;;;;;;;6.85;1.77;;;40.50;40.70;;;;;;5049446;28;20073;-53
2023/07/24 00:59:07;;;;;;;5.40;1.75;;;40.50;40.50;;;;;;5046323;28;20128;-55
2023/07/24 01:01:33;;;;;;;5.45;1.85;;;40.50;40.20;;;;;;5044146;28;20067;-53
2023/07/24 01:04:02;;;;;;;8.18;2.05;;;40.50;40.60;;;;;;5048376;28;20017;-56
2023/07/24 01:06:29;;;;;;;8.25;2.25;;;40.40;40.40;;;;;;5044545;28;20029;-54
2023/07/24 01:08:56;;;;;;;11.90;1.80;;;40.40;40.50;;;;;;5044230;28;20478;-56
2023/07/24 01:11:50;;;;;;;9.65;2.20;;;40.40;40.40;;;;;;5043361;28;20066;-55
2023/07/24 01:14:49;;;;;;;11.02;2.10;;;40.40;40.70;;;;;;5047866;28;20071;-60
2023/07/24 01:17:20;;;;;;;8.15;2.33;;;40.30;40.10;;;;;;5021097;28;20432;-57
2023/07/24 01:19:55;;;;;;;7.03;1.75;;;40.30;40.30;;;;;;5044229;28;20159;-55
2023/07/24 01:22:28;;;;;;;10.38;1.80;;;40.20;40.20;;;;;;5049459;28;20051;-56
2023/07/24 01:25:05;;;;;;;16.10;1.95;;;40.20;40.20;;;;;;5043421;28;20509;-55
2023/07/24 01:27:31;;;;;;;12.45;2.00;;;40.20;40.10;;;;;;5041838;28;20017;-58
2023/07/24 01:29:58;;;;;;;5.93;2.00;;;40.00;41.50;;;;;;5044628;28;20119;-53
2023/07/24 01:32:25;;;;;;;9.30;1.85;;;39.50;41.60;;;;;;5050216;28;20119;-58
2023/07/24 01:34:52;;;;;;;7.78;1.98;;;39.20;42.00;;;;;;5052046;28;20149;-55
2023/07/24 01:37:22;;;;;;;14.63;2.47;;;39.20;41.80;;;;;;5047112;28;20135;-56
2023/07/24 01:39:50;;;;;;;7.55;2.47;;;39.20;42.10;;;;;;5044832;28;20430;-58
2023/07/24 01:42:16;;;;;;;10.10;2.53;;;39.20;42.10;;;;;;5028999;28;20048;-57
2023/07/24 01:44:43;;;;;;;11.13;2.55;;;39.20;42.20;;;;;;5043348;28;20099;-58
2023/07/24 01:47:09;;;;;;;13.20;2.40;;;39.30;42.50;;;;;;5043938;28;20041;-54
2023/07/24 01:49:36;;;;;;;13.70;2.20;;;39.30;42.30;;;;;;5046373;28;20064;-54
2023/07/24 01:52:02;;;;;;;8.77;2.03;;;39.30;42.30;;;;;;5044859;28;20040;-55
2023/07/24 01:54:29;;;;;;;12.25;2.35;;;39.40;42.40;;;;;;5049146;28;20150;-57
2023/07/24 01:56:55;;;;;;;14.73;2.85;;;39.40;42.70;;;;;;5045669;28;20182;-54
2023/07/24 01:59:21;;;;;;;9.52;3.42;;;39.30;43.10;;;;;;5024145;28;20052;-56
2023/07/24 02:01:48;;;;;;;15.63;4.60;;;39.30;43.30;;;;;;5049570;28;20160;-54
2023/07/24 02:04:14;;;;;;;22.20;6.25;;;39.20;43.60;;;;;;5055040;28;20109;-54
2023/07/24 02:06:41;;;;;;;9.45;2.78;;;39.20;43.80;;;;;;5046655;28;20051;-47
2023/07/24 02:09:07;;;;;;;10.95;2.22;;;39.10;44.00;;;;;;5044010;28;20046;-56
2023/07/24 02:11:33;;;;;;;16.17;2.28;;;39.10;44.00;;;;;;5044017;28;20187;-51
2023/07/24 02:14:00;;;;;;;16.00;2.83;;;39.00;44.20;;;;;;5042389;28;20045;-51
2023/07/24 02:16:26;;;;;;;13.07;2.60;;;38.90;44.50;;;;;;5040497;28;20103;-52
2023/07/24 02:18:53;;;;;;;13.10;2.60;;;38.90;44.40;;;;;;5045850;28;20125;-47
2023/07/24 02:21:19;;;;;;;14.25;2.47;;;38.80;44.40;;;;;;5041700;28;20042;-53
2023/07/24 02:23:45;;;;;;;12.60;2.50;;;38.70;44.40;;;;;;5045702;28;20045;-51
2023/07/24 02:26:12;;;;;;;14.57;2.50;;;38.70;44.60;;;;;;5054491;28;20522;-58
2023/07/24 02:28:38;;;;;;;14.95;3.05;;;38.60;44.70;;;;;;5052218;28;20085;-52
2023/07/24 02:31:04;;;;;;;10.10;2.55;;;38.60;44.60;;;;;;5048726;28;20099;-53
2023/07/24 02:33:31;;;;;;;19.40;2.80;;;38.60;44.90;;;;;;5046192;28;20047;-55
2023/07/24 02:35:57;;;;;;;10.35;2.42;;;38.50;44.90;;;;;;5044918;28;20067;-53
2023/07/24 02:38:24;;;;;;;9.90;2.50;;;38.50;45.00;;;;;;5044189;28;20053;-54
2023/07/24 02:40:50;;;;;;;12.32;2.25;;;38.40;44.70;;;;;;5040815;28;20127;-57
2023/07/24 02:43:16;;;;;;;26.90;3.35;;;38.30;44.90;;;;;;5040634;28;20393;-55
2023/07/24 02:45:43;;;;;;;22.30;3.97;;;38.20;45.00;;;;;;5039141;28;20057;-53
2023/07/24 02:48:09;;;;;;;12.35;3.40;;;38.20;45.20;;;;;;5043145;28;20101;-54
2023/07/24 02:50:36;;;;;;;14.98;2.90;;;38.10;45.30;;;;;;5047144;28;20396;-55
2023/07/24 02:53:02;;;;;;;12.23;2.75;;;38.10;45.50;;;;;;5047485;28;20067;-54
2023/07/24 02:55:29;;;;;;;43.10;4.13;;;38.00;45.30;;;;;;5046765;28;20074;-52
2023/07/24 02:57:55;;;;;;;17.05;7.15;;;38.00;45.40;;;;;;5051147;28;20043;-56
2023/07/24 03:00:22;;;;;;;12.55;8.73;;;37.90;45.50;;;;;;5048867;28;20125;-52
2023/07/24 03:02:48;;;;;;;13.32;5.63;;;37.90;45.60;;;;;;5049185;28;20480;-50
2023/07/24 03:05:15;;;;;;;20.65;7.25;;;37.80;45.30;;;;;;5053735;28;20060;-51
2023/07/24 03:07:41;;;;;;;21.98;7.30;;;37.80;45.30;;;;;;5048089;28;20054;-49
2023/07/24 03:10:08;;;;;;;27.02;8.82;;;37.70;45.40;;;;;;5046443;28;21063;-50
2023/07/24 03:12:34;;;;;;;15.45;3.60;;;37.70;45.40;;;;;;5048824;28;20064;-52
2023/07/24 03:15:01;;;;;;;19.27;3.22;;;37.60;45.40;;;;;;5048725;28;20074;-49
2023/07/24 03:17:27;;;;;;;15.30;2.95;;;37.60;45.40;;;;;;5048138;28;20057;-51
2023/07/24 03:19:55;;;;;;;19.40;3.13;;;37.60;45.60;;;;;;5053168;28;20067;-53
2023/07/24 03:22:21;;;;;;;13.95;3.50;;;37.50;45.50;;;;;;5050746;28;20105;-52
2023/07/24 03:24:48;;;;;;;20.83;2.80;;;37.50;45.60;;;;;;5057857;28;20147;-52
2023/07/24 03:27:14;;;;;;;24.00;3.38;;;37.50;45.30;;;;;;5046027;28;20419;-51
2023/07/24 03:29:41;;;;;;;14.38;2.97;;;37.40;44.90;;;;;;5052258;28;20061;-50
2023/07/24 03:32:08;;;;;;;7.60;2.55;;;37.40;45.00;;;;;;5057280;28;20055;-50
2023/07/24 03:34:34;;;;;;;11.07;2.40;;;37.40;44.70;;;;;;5053347;28;20071;-52
2023/07/24 03:37:01;;;;;;;13.30;2.67;;;37.30;44.70;;;;;;5048210;28;20048;-53
2023/07/24 03:39:27;;;;;;;15.95;2.35;;;37.30;44.70;;;;;;5047962;28;20134;-50
2023/07/24 03:41:53;;;;;;;7.45;2.58;;;37.20;44.80;;;;;;5032462;28;20527;-52
2023/07/24 03:44:20;;;;;;;8.75;2.72;;;37.20;44.80;;;;;;5048582;28;20121;-50
2023/07/24 03:46:46;;;;;;;9.52;2.20;;;37.20;44.80;;;;;;5049075;28;20044;-48
2023/07/24 03:49:12;;;;;;;21.65;2.85;;;37.20;44.60;;;;;;5047942;28;20052;-49
2023/07/24 03:51:39;;;;;;;14.73;2.40;;;37.20;44.50;;;;;;5048135;28;20479;-49
2023/07/24 03:54:05;;;;;;;15.20;2.25;;;37.10;44.40;;;;;;5050143;28;20443;-51
2023/07/24 03:56:32;;;;;;;8.15;2.13;;;37.10;44.20;;;;;;5049999;28;20069;-51
2023/07/24 03:58:58;;;;;;;10.65;2.47;;;37.20;44.30;;;;;;5047958;28;20059;-48
2023/07/24 04:01:24;;;;;;;8.82;2.13;;;37.10;44.20;;;;;;5047697;28;20078;-56
2023/07/24 04:03:52;;;;;;;8.90;2.35;;;37.10;44.10;;;;;;5047440;28;20184;-47
2023/07/24 04:06:18;;;;;;;14.05;2.95;;;37.10;44.10;;;;;;5047051;28;20080;-55
2023/07/24 04:08:44;;;;;;;12.10;2.78;;;37.10;44.10;;;;;;5047523;28;20510;-53
2023/07/24 04:11:11;;;;;;;14.73;2.67;;;37.10;44.10;;;;;;5049854;28;20079;-53
2023/07/24 04:13:37;;;;;;;15.30;2.83;;;37.10;44.20;;;;;;5051662;28;20066;-54
2023/07/24 04:16:04;;;;;;;10.63;2.30;;;37.10;44.20;;;;;;5050524;28;20173;-49
2023/07/24 04:18:30;;;;;;;7.95;2.38;;;37.00;44.20;;;;;;5031043;28;20062;-53
2023/07/24 04:20:57;;;;;;;15.55;2.28;;;37.00;44.20;;;;;;5047482;28;20049;-54
2023/07/24 04:23:23;;;;;;;11.38;3.05;;;37.00;44.30;;;;;;5053533;28;20088;-52
2023/07/24 04:25:52;;;;;;;9.00;2.30;;;37.00;44.50;;;;;;5053712;28;20059;-55
2023/07/24 04:28:18;;;;;;;13.00;2.35;;;37.00;44.50;;;;;;5047347;28;20135;-52
2023/07/24 04:30:45;;;;;;;11.90;2.60;;;36.90;44.60;;;;;;5050403;28;20062;-55
2023/07/24 04:33:11;;;;;;;9.55;1.92;;;36.90;44.80;;;;;;5050183;28;20063;-52
2023/07/24 04:35:38;;;;;;;13.80;2.63;;;36.90;45.00;;;;;;5049657;28;20063;-55
2023/07/24 04:38:04;;;;;;;20.02;2.90;;;36.90;45.60;;;;;;5048444;28;20057;-50
2023/07/24 04:40:30;;;;;;;11.40;2.95;;;36.80;46.20;;;;;;5047711;28;20520;-54
2023/07/24 04:42:57;;;;;;;16.10;3.70;;;36.80;46.60;;;;;;5047386;28;20066;-53
2023/07/24 04:45:24;;;;;;;18.35;3.15;;;36.70;46.80;;;;;;5048700;28;20150;-52
2023/07/24 04:47:50;;;;;;;21.63;4.30;;;36.60;47.60;;;;;;5048006;28;20064;-55
2023/07/24 04:50:17;;;;;;;18.52;5.13;;;36.50;48.10;;;;;;5048062;28;20066;-50
2023/07/24 04:52:43;;;;;;;22.10;5.05;;;36.50;48.90;;;;;;5051749;28;20061;-50
2023/07/24 04:55:09;;;;;;;24.25;5.05;;;36.40;48.40;;;;;;5050268;28;20066;-51
2023/07/24 04:57:36;;;;;;;25.98;6.78;;;36.40;49.00;;;;;;5054836;28;20093;-54
2023/07/24 05:00:04;;;;;;;25.23;6.00;;;36.40;48.50;;;;;;5056666;28;20092;-53
2023/07/24 05:02:30;;;;;;;30.65;5.18;;;36.30;48.60;;;;;;5047067;28;20048;-51
2023/07/24 05:04:57;;;;;;;38.58;5.40;;;36.30;49.40;;;;;;5052848;28;20127;-52
2023/07/24 05:07:23;;;;;;;26.60;4.78;;;36.20;49.80;;;;;;5046726;28;20054;-54
2023/07/24 05:09:49;;;;;;;22.73;4.32;;;36.20;50.20;;;;;;5051043;28;20415;-57
2023/07/24 05:12:16;;;;;;;17.33;3.58;;;36.20;51.10;;;;;;5048229;28;20152;-53
2023/07/24 05:14:42;;;;;;;25.15;4.45;;;36.20;51.90;;;;;;5045826;28;20088;-52
2023/07/24 05:17:08;;;;;;;24.40;4.13;;;36.80;50.90;;;;;;5048908;28;20428;-52
2023/07/24 05:19:35;;;;;;;16.50;3.40;;;37.20;50.80;;;;;;5047798;28;20133;-54
2023/07/24 05:22:01;;;;;;;13.43;3.28;;;37.40;50.80;;;;;;5047721;28;20082;-54
2023/07/24 05:24:28;;;;;;;30.25;4.10;;;37.60;50.80;;;;;;5046393;28;20576;-51
2023/07/24 05:26:54;;;;;;;13.70;3.80;;;37.70;49.60;;;;;;5046094;28;20061;-52
2023/07/24 05:29:21;;;;;;;15.75;3.75;;;37.70;50.30;;;;;;5045891;28;20110;-51
2023/07/24 05:31:48;;;;;;;18.88;3.10;;;37.70;50.40;;;;;;5037248;28;20052;-59
2023/07/24 05:34:14;;;;;;;15.02;3.38;;;37.80;50.50;;;;;;5047944;28;20065;-49
2023/07/24 05:36:43;;;;;;;12.55;3.75;;;37.50;50.80;;;;;;5046073;28;20427;-51
2023/07/24 05:39:10;;;;;;;16.20;4.03;;;37.40;51.00;;;;;;5044975;28;20054;-51
2023/07/24 05:41:36;;;;;;;15.57;3.65;;;37.40;51.30;;;;;;5049744;28;20066;-52
2023/07/24 05:44:03;;;;;;;27.33;3.90;;;37.30;51.60;;;;;;5050906;28;20485;-50
2023/07/24 05:46:29;;;;;;;12.90;3.60;;;37.40;51.60;;;;;;5051063;28;20057;-51
2023/07/24 05:48:56;;;;;;;10.50;3.53;;;37.30;51.60;;;;;;5050580;28;20066;-51
2023/07/24 05:51:23;;;;;;;15.38;3.60;;;37.20;51.70;;;;;;5050561;28;20114;-54
2023/07/24 05:53:50;;;;;;;15.07;3.95;;;37.10;52.20;;;;;;5047154;28;20090;-55
2023/07/24 05:56:16;;;;;;;16.95;3.65;;;37.10;52.20;;;;;;5046446;28;20076;-54
2023/07/24 05:58:42;;;;;;;17.35;4.03;;;36.90;52.50;;;;;;5051955;28;20163;-48
2023/07/24 06:01:10;;;;;;;16.42;4.75;;;36.70;52.70;;;;;;5047681;28;20427;-55
2023/07/24 06:03:36;;;;;;;22.80;4.18;;;36.70;52.90;;;;;;5028516;28;20069;-53
2023/07/24 06:06:03;;;;;;;18.40;4.57;;;36.50;53.40;;;;;;5048327;28;20523;-55
2023/07/24 06:08:29;;;;;;;17.15;3.33;;;36.50;53.70;;;;;;5046785;28;20062;-54
2023/07/24 06:10:56;;;;;;;15.07;3.10;;;36.30;54.10;;;;;;5048631;28;20063;-51
2023/07/24 06:13:22;;;;;;;20.55;4.00;;;36.30;54.30;;;;;;5045428;28;20146;-54
2023/07/24 06:15:50;;;;;;;14.95;3.17;;;36.30;54.50;;;;;;5046125;28;20091;-57
2023/07/24 06:18:16;;;;;;;17.75;3.58;;;36.20;54.70;;;;;;5047641;28;20153;-53
2023/07/24 06:20:43;;;;;;;20.55;3.55;;;36.20;54.90;;;;;;5048830;28;20061;-51
2023/07/24 06:23:09;;;;;;;14.25;3.25;;;36.20;55.00;;;;;;5049578;28;20064;-49
2023/07/24 06:25:35;;;;;;;24.58;3.28;;;36.20;55.00;;;;;;5046273;28;20070;-54
2023/07/24 06:28:02;;;;;;;19.55;3.25;;;36.10;55.10;;;;;;5046479;28;20065;-57
2023/07/24 06:30:28;;;;;;;10.57;3.20;;;36.00;55.20;;;;;;5052131;28;20634;-52
2023/07/24 06:32:55;;;;;;;9.13;2.85;;;36.00;55.50;;;;;;5052271;28;20060;-52
2023/07/24 06:35:21;;;;;;;19.05;3.30;;;36.10;55.40;;;;;;5047569;28;20158;-54
2023/07/24 06:37:47;;;;;;;10.93;2.67;;;35.90;55.50;;;;;;5050732;28;20090;-54
2023/07/24 06:40:14;;;;;;;13.07;3.13;;;35.90;55.60;;;;;;5049728;28;20067;-53
2023/07/24 06:42:40;;;;;;;16.52;3.00;;;35.80;55.60;;;;;;5050101;28;20058;-54
2023/07/24 06:45:07;;;;;;;12.05;3.30;;;35.80;55.50;;;;;;5049112;28;20069;-50
2023/07/24 06:47:34;;;;;;;14.10;2.75;;;35.80;55.60;;;;;;5047239;28;20107;-51
2023/07/24 06:50:02;;;;;;;15.48;2.70;;;35.80;56.00;;;;;;5049440;28;20077;-53
2023/07/24 06:52:28;;;;;;;17.98;3.20;;;35.70;56.00;;;;;;5047700;28;20063;-49
2023/07/24 06:54:54;;;;;;;13.70;3.25;;;35.70;56.10;;;;;;5048956;28;20112;-52
2023/07/24 06:57:21;;;;;;;12.52;3.05;;;35.70;56.40;;;;;;5048282;28;20083;-50
2023/07/24 06:59:47;;;;;;;13.38;3.50;;;35.70;56.40;;;;;;5048501;28;20555;-49
2023/07/24 07:02:13;;;;;;;10.20;3.15;;;35.60;56.60;;;;;;5051310;28;20557;-48
2023/07/24 07:04:40;;;;;;;14.82;3.33;;;35.50;57.10;;;;;;5052919;28;20069;-53
2023/07/24 07:07:06;;;;;;;19.33;3.60;;;35.50;57.40;;;;;;5052110;28;20055;-53
2023/07/24 07:09:33;;;;;;;12.15;3.20;;;35.50;57.50;;;;;;5050555;28;20076;-52
2023/07/24 07:11:59;;;;;;;22.02;4.07;;;35.40;58.00;;;;;;5051544;28;20531;-53
2023/07/24 07:14:25;;;;;;;18.05;3.20;;;35.30;58.40;;;;;;5048107;28;20069;-50
2023/07/24 07:16:52;;;;;;;56.85;4.07;;;35.20;58.60;;;;;;5033185;28;20498;-51
2023/07/24 07:19:18;;;;;;;21.02;3.30;;;35.30;58.50;;;;;;5032117;28;20422;-52
2023/07/24 07:21:45;;;;;;;12.75;3.58;;;35.30;58.50;;;;;;5034253;28;20077;-52
2023/07/24 07:24:11;;;;;;;21.80;3.72;;;35.30;58.30;;;;;;5032735;28;20544;-52
2023/07/24 07:26:37;;;;;;;13.90;3.65;;;35.20;58.40;;;;;;5031111;28;20053;-48
2023/07/24 07:29:04;;;;;;;18.30;4.05;;;35.20;58.50;;;;;;5030203;28;20075;-48
2023/07/24 07:31:30;;;;;;;20.05;3.63;;;35.10;58.50;;;;;;5034940;28;20076;-49
2023/07/24 07:33:57;;;;;;;15.85;3.70;;;35.10;58.80;;;;;;5036281;28;20155;-52
2023/07/24 07:36:23;;;;;;;15.32;3.88;;;35.20;58.80;;;;;;5031355;28;20217;-51
2023/07/24 07:38:49;;;;;;;14.63;3.50;;;35.20;58.80;;;;;;5031089;28;20359;-50
2023/07/24 07:41:16;;;;;;;17.05;3.78;;;35.10;58.90;;;;;;5032016;28;20071;-49
2023/07/24 07:43:42;;;;;;;15.52;3.45;;;35.10;58.90;;;;;;5033681;28;20561;-51
2023/07/24 07:46:09;;;;;;;18.60;4.40;;;35.00;58.90;;;;;;5031656;28;20079;-47
2023/07/24 07:48:35;;;;;;;19.73;4.45;;;34.90;59.00;;;;;;5028087;28;20077;-49
2023/07/24 07:51:01;;;;;;;15.85;3.70;;;34.90;59.20;;;;;;5027759;28;20590;-55
2023/07/24 07:53:28;;;;;;;14.30;4.32;;;34.80;59.20;;;;;;5032847;28;20070;-51
2023/07/24 07:55:59;;;;;;;12.95;3.65;;;34.80;59.00;;;;;;5030093;28;20075;-50
2023/07/24 07:58:26;;;;;;;16.48;3.75;;;34.80;59.10;;;;;;5028115;28;20069;-48
2023/07/24 08:00:52;;;;;;;10.15;3.20;;;34.80;59.20;;;;;;5028399;28;20068;-49
2023/07/24 08:03:19;;;;;;;16.52;3.47;;;34.80;59.30;;;;;;5029370;28;20074;-50
2023/07/24 08:05:45;;;;;;;18.20;3.58;;;34.90;59.40;;;;;;5032246;28;20071;-56
2023/07/24 08:08:12;;;;;;;14.55;3.22;;;34.80;59.40;;;;;;5028530;28;20081;-50
2023/07/24 08:10:38;;;;;;;20.85;3.53;;;34.90;59.50;;;;;;5026821;28;20075;-48
2023/07/24 08:13:05;;;;;;;10.30;2.90;;;34.80;59.20;;;;;;5027177;28;20430;-51
2023/07/24 08:15:35;;;;;;;15.77;3.50;;;34.80;59.30;;;;;;5039654;28;20079;-52
2023/07/24 08:18:05;;;;;;;14.07;3.33;;;34.80;59.50;;;;;;5046316;28;20097;-53
2023/07/24 08:20:34;;;;;;;10.35;3.03;;;34.80;60.20;;;;;;5048507;28;20150;-51
2023/07/24 08:23:01;;;;;;;15.60;3.15;;;34.70;61.50;;;;;;5050663;28;20467;-51
2023/07/24 08:25:27;;;;;;;11.10;3.53;;;34.70;62.30;;;;;;5049148;28;20071;-49
2023/07/24 08:27:54;;;;;;;8.48;3.00;;;34.70;63.00;;;;;;5048751;28;20079;-61
2023/07/24 08:30:20;;;;;;;11.15;3.15;;;34.60;63.50;;;;;;5048395;28;20085;-53
2023/07/24 08:32:46;;;;;;;14.57;3.67;;;34.60;64.40;;;;;;5052421;28;20115;-51
2023/07/24 08:35:13;;;;;;;8.73;3.72;;;34.50;65.40;;;;;;5049630;28;20123;-48
2023/07/24 08:37:44;;;;;;;10.07;4.38;;;34.40;66.40;;;;;;5046483;28;20074;-48
2023/07/24 08:40:11;;;;;;;12.43;3.90;;;34.30;68.10;;;;;;5047658;28;20094;-53
2023/07/24 08:42:42;;;;;;;13.25;3.88;;;34.30;68.60;;;;;;5047559;28;20075;-49
2023/07/24 08:45:13;;;;;;;13.05;3.38;;;34.30;69.50;;;;;;5048805;28;20071;-52
2023/07/24 08:47:45;;;;;;;12.18;3.58;;;34.20;70.80;;;;;;5049428;28;20085;-51
2023/07/24 08:50:14;;;;;;;11.65;3.50;;;34.10;71.50;;;;;;5048754;28;20075;-49
2023/07/24 08:52:42;;;;;;;12.25;3.80;;;34.10;72.20;;;;;;5048360;28;20076;-47
2023/07/24 08:55:09;;;;;;;10.63;3.95;;;34.10;72.60;;;;;;5047111;28;20133;-52
2023/07/24 08:57:36;;;;;;;11.57;3.88;;;34.20;73.00;;;;;;5046667;28;20082;-50
2023/07/24 09:00:04;;;;;;;17.70;4.15;;;34.10;73.60;;;;;;5048654;28;20083;-52
2023/07/24 09:02:36;;;;;;;12.05;3.45;;;34.10;74.20;;;;;;5046946;28;20070;-56
2023/07/24 09:05:03;;;;;;;25.52;3.50;;;34.00;74.80;;;;;;5054075;28;20065;-55
2023/07/24 09:07:31;;;;;;;11.25;3.35;;;34.00;75.10;;;;;;5046877;28;20095;-52
2023/07/24 09:09:57;;;;;;;14.50;3.17;;;33.80;75.70;;;;;;5050623;28;20083;-48
2023/07/24 09:12:24;;;;;;;10.43;3.42;;;33.60;77.40;;;;;;5052215;28;20085;-51
2023/07/24 09:15:02;;;;;;;10.98;3.45;;;33.70;78.20;;;;;;5052262;28;20669;-50
2023/07/24 09:17:29;;;;;;;11.75;4.07;;;33.70;78.70;;;;;;5049345;28;20111;-47
2023/07/24 09:19:58;;;;;;;11.93;3.20;;;33.60;79.90;;;;;;5049221;28;20086;-56
2023/07/24 09:22:26;;;;;;;13.18;4.05;;;33.50;81.00;;;;;;5026625;28;20086;-48
2023/07/24 09:24:55;;;;;;;12.18;4.05;;;33.50;81.50;;;;;;5047955;28;20164;-49
2023/07/24 09:27:25;;;;;;;14.82;3.70;;;33.50;81.90;;;;;;5046142;28;20100;-51
2023/07/24 09:29:51;;;;;;;11.95;3.88;;;33.40;82.50;;;;;;5055753;28;20073;-50
2023/07/24 09:32:25;;;;;;;20.38;3.70;;;33.50;83.20;;;;;;5050774;28;20576;-49
2023/07/24 09:34:54;;;;;;;15.30;3.90;;;33.40;83.40;;;;;;5049795;28;20086;-52
2023/07/24 09:37:38;;;;;;;15.27;3.60;;;33.40;84.00;;;;;;5048188;28;20083;-54
2023/07/24 09:40:05;;;;;;;13.13;4.15;;;33.30;84.40;;;;;;5046965;28;20164;-49
2023/07/24 09:42:36;;;;;;;17.23;4.03;;;33.30;84.70;;;;;;5046247;28;20071;-49
2023/07/24 09:45:03;;;;;;;15.73;4.22;;;33.30;85.40;;;;;;5047187;28;20090;-48
2023/07/24 09:47:30;;;;;;;16.38;4.20;;;33.20;85.80;;;;;;5045899;28;20131;-49
2023/07/24 09:49:57;;;;;;;13.30;3.72;;;33.10;86.10;;;;;;5045487;28;20490;-48
2023/07/24 09:52:24;;;;;;;14.45;3.85;;;33.10;86.20;;;;;;5047292;28;20081;-48
2023/07/24 09:55:00;;;;;;;13.52;4.15;;;33.10;86.50;;;;;;5053343;28;20091;-53
2023/07/24 09:57:28;;;;;;;11.40;3.43;;;33.00;86.50;;;;;;5045220;28;20073;-49
2023/07/24 09:59:55;;;;;;;12.68;4.18;;;33.10;86.50;;;;;;5046508;28;20072;-48
2023/07/24 10:02:22;;;;;;;11.00;4.05;;;33.00;86.30;;;;;;5049099;28;20123;-50
2023/07/24 10:04:50;;;;;;;13.43;4.63;;;33.00;86.70;;;;;;5050121;28;20085;-50
2023/07/24 10:07:16;;;;;;;19.35;4.53;;;32.90;86.70;;;;;;5049863;28;20084;-47
2023/07/24 10:09:44;;;;;;;12.55;4.00;;;32.90;86.80;;;;;;5051512;28;20088;-47
2023/07/24 10:12:11;;;;;;;16.35;4.22;;;32.80;87.30;;;;;;5054858;28;20077;-52
2023/07/24 10:14:38;;;;;;;18.92;4.50;;;32.80;87.00;;;;;;5053758;28;20085;-50
2023/07/24 10:17:05;;;;;;;14.23;4.88;;;32.80;87.00;;;;;;5052274;28;20545;-54
2023/07/24 10:19:42;;;;;;;16.20;4.20;;;32.70;87.40;;;;;;5050682;28;20536;-48
2023/07/24 10:22:18;;;;;;;13.40;3.88;;;32.70;88.10;;;;;;5050728;28;20081;-51
2023/07/24 10:24:45;;;;;;;13.33;4.37;;;32.70;89.00;;;;;;5049904;28;20657;-48
2023/07/24 10:27:12;;;;;;;12.75;4.07;;;32.70;89.50;;;;;;5030828;28;20179;-48
2023/07/24 10:29:38;;;;;;;12.52;3.70;;;32.80;89.80;;;;;;5049444;28;20523;-48
2023/07/24 10:32:18;;;;;;;15.25;4.03;;;32.70;90.00;;;;;;5049789;28;20070;-52
2023/07/24 10:34:44;;;;;;;18.42;3.65;;;32.60;90.30;;;;;;5049033;28;20588;-47
2023/07/24 10:37:11;;;;;;;14.82;3.47;;;32.70;90.80;;;;;;5049410;28;20094;-52
2023/07/24 10:39:41;;;;;;;17.77;3.95;;;32.60;91.20;;;;;;5052540;28;20123;-52
2023/07/24 10:42:09;;;;;;;12.68;3.60;;;32.60;91.40;;;;;;5051371;28;20074;-52
2023/07/24 10:44:36;;;;;;;14.30;4.00;;;32.60;91.80;;;;;;5049620;28;20138;-49
2023/07/24 10:47:02;;;;;;;13.00;3.60;;;32.50;92.10;;;;;;5051948;28;20761;-47
2023/07/24 10:49:29;;;;;;;17.65;3.90;;;32.60;92.20;;;;;;5051567;28;20081;-49
2023/07/24 10:51:59;;;;;;;10.13;3.38;;;32.60;92.20;;;;;;5053640;28;20068;-49
2023/07/24 10:54:25;;;;;;;14.25;3.65;;;32.60;92.30;;;;;;5048300;28;20501;-51
2023/07/24 10:57:02;;;;;;;13.60;4.18;;;32.50;92.50;;;;;;5050707;28;20212;-49
2023/07/24 10:59:40;;;;;;;11.43;3.67;;;32.50;93.10;;;;;;5056890;28;20106;-49
2023/07/24 11:02:07;;;;;;;11.55;3.78;;;32.40;93.20;;;;;;5054693;28;20555;-50
2023/07/24 11:04:34;;;;;;;15.60;4.13;;;32.50;92.80;;;;;;5049068;28;20075;-52
2023/07/24 11:07:01;;;;;;;10.05;3.65;;;32.40;92.80;;;;;;5054424;28;20107;-54
2023/07/24 11:09:40;;;;;;;13.38;4.57;;;32.50;92.80;;;;;;5049659;28;20086;-53
2023/07/24 11:12:16;;;;;;;18.58;4.78;;;32.50;92.90;;;;;;5051689;28;20149;-51
2023/07/24 11:14:49;;;;;;;13.38;4.82;;;32.40;93.20;;;;;;5049060;28;20083;-50
2023/07/24 11:17:16;;;;;;;14.05;4.50;;;32.40;93.10;;;;;;5048076;28;20549;-49
2023/07/24 11:19:42;;;;;;;13.85;4.72;;;32.40;93.20;;;;;;5048749;28;20491;-49
2023/07/24 11:22:09;;;;;;;13.32;4.65;;;32.40;93.20;;;;;;5047703;28;20107;-54
2023/07/24 11:24:57;;;;;;;13.95;4.70;;;32.40;92.90;;;;;;5051881;28;20444;-51
2023/07/24 11:27:25;;;;;;;13.18;4.32;;;32.40;93.10;;;;;;5049740;28;20570;-48
2023/07/24 11:29:52;;;;;;;11.77;4.20;;;32.40;93.20;;;;;;5031557;28;20078;-48
2023/07/24 11:32:20;;;;;;;13.57;4.30;;;32.40;93.20;;;;;;5050197;28;20084;-54
2023/07/24 11:34:49;;;;;;;12.85;4.18;;;32.20;93.20;;;;;;5048787;28;20072;-49
2023/07/24 11:37:18;;;;;;;16.67;4.82;;;32.20;93.70;;;;;;5048803;28;20106;-50
2023/07/24 11:39:58;;;;;;;11.57;5.03;;;32.30;93.60;;;;;;5049605;28;20122;-50
2023/07/24 11:42:27;;;;;;;14.13;4.88;;;32.30;93.90;;;;;;5030165;28;20082;-51
2023/07/24 11:44:54;;;;;;;12.07;5.10;;;32.30;93.90;;;;;;5047599;28;20553;-49
2023/07/24 11:47:20;;;;;;;22.25;5.82;;;32.20;94.20;;;;;;5047447;28;20083;-51
2023/07/24 11:50:00;;;;;;;16.75;5.30;;;32.10;94.50;;;;;;5047984;28;20075;-49
2023/07/24 11:52:37;;;;;;;10.75;5.40;;;32.20;94.80;;;;;;5049707;28;20094;-49
2023/07/24 11:55:04;;;;;;;15.18;5.20;;;32.10;94.90;;;;;;5049411;28;20095;-48
2023/07/24 11:57:30;;;;;;;11.38;4.65;;;32.00;95.00;;;;;;5048746;28;20096;-51
2023/07/24 11:59:57;;;;;;;12.02;4.65;;;32.10;95.20;;;;;;5049044;28;20484;-53
2023/07/24 12:02:28;;;;;;;14.18;4.97;;;32.10;95.40;;;;;;5048126;28;20182;-47
2023/07/24 12:04:58;;;;;;;17.15;5.80;;;32.00;95.40;;;;;;5052050;28;20575;-53
2023/07/24 12:07:31;;;;;;;11.35;5.22;;;32.00;95.60;;;;;;5048264;28;20544;-48
2023/07/24 12:09:57;;;;;;;13.98;4.95;;;32.00;95.60;;;;;;5047739;28;20076;-53
2023/07/24 12:12:24;;;;;;;14.85;5.40;;;31.90;95.70;;;;;;5051638;28;20099;-49
2023/07/24 12:14:50;;;;;;;11.88;4.38;;;31.90;95.90;;;;;;5048230;28;20577;-47
2023/07/24 12:17:20;;;;;;;14.00;5.25;;;31.90;96.00;;;;;;5049568;28;20525;-50
2023/07/24 12:19:47;;;;;;;19.20;6.25;;;31.90;96.20;;;;;;5047865;28;20071;-52
2023/07/24 12:22:13;;;;;;;17.65;5.60;;;32.00;96.10;;;;;;5047453;28;20094;-47
2023/07/24 12:24:39;;;;;;;15.40;5.70;;;31.90;96.00;;;;;;5047277;28;20102;-51
2023/07/24 12:27:06;;;;;;;13.95;5.30;;;31.90;96.20;;;;;;5049219;28;20533;-49
2023/07/24 12:29:32;;;;;;;16.45;5.38;;;31.90;96.50;;;;;;5050410;28;20092;-52
2023/07/24 12:31:59;;;;;;;14.07;5.15;;;31.90;96.40;;;;;;5049619;28;20102;-52
2023/07/24 12:34:25;;;;;;;11.52;5.13;;;31.90;96.40;;;;;;5051025;28;20067;-52
2023/07/24 12:36:53;;;;;;;14.50;5.63;;;31.90;96.60;;;;;;5048145;28;20722;-51
2023/07/24 12:39:20;;;;;;;18.33;5.57;;;31.80;96.60;;;;;;5052780;28;20092;-53